createdAt,value
2023-05-09T00:04:33.838Z,31.5
2023-05-09T00:08:32.987Z,34.3
2023-05-09T00:10:32.501Z,31.4
2023-05-09T00:12:35.477Z,35.4
2023-05-09T00:16:34.602Z,28.9
2023-05-09T00:18:34.139Z,36.1
2023-05-09T00:20:33.725Z,34
2023-05-09T00:22:33.269Z,33.4
2023-05-09T00:30:34.955Z,33.2
2023-05-09T00:34:34.088Z,31.7
2023-05-09T00:36:33.694Z,34.4
2023-05-09T00:38:33.227Z,33.3
2023-05-09T00:40:36.188Z,35.6
2023-05-09T00:45:36.856Z,33.7
2023-05-09T00:47:36.544Z,32.3
2023-05-09T00:49:35.989Z,32.5
2023-05-09T00:57:37.732Z,32.5
2023-05-09T00:59:37.293Z,33.5
2023-05-09T01:03:36.549Z,32.1
2023-05-09T01:05:36.002Z,34.9
2023-05-09T01:07:39.007Z,36.5
2023-05-09T01:19:36.490Z,33.2
2023-05-09T01:21:39.434Z,35.6
2023-05-09T01:23:39.038Z,36
2023-05-09T01:25:38.581Z,34.1
2023-05-09T01:27:38.193Z,32.7
2023-05-09T01:29:37.790Z,32.7
2023-05-09T01:31:37.395Z,33.7
2023-05-09T01:33:36.944Z,33.7
2023-05-09T01:37:39.503Z,35.1
2023-05-09T01:39:39.074Z,32.5
2023-05-09T01:42:40.117Z,31.8
2023-05-09T01:56:40.529Z,33.1
2023-05-09T01:58:40.058Z,35.2
2023-05-09T02:00:39.725Z,32.8
2023-05-09T02:02:42.697Z,36.9
2023-05-09T02:04:42.148Z,35.1
2023-05-09T02:08:41.307Z,32.3
2023-05-09T02:10:40.866Z,32.6
2023-05-09T02:14:40.005Z,32.7
2023-05-09T02:18:42.567Z,32.7
2023-05-09T02:20:42.130Z,31
2023-05-09T02:24:41.286Z,32.6
2023-05-09T02:28:40.431Z,30.7
2023-05-09T02:30:43.412Z,37
2023-05-09T02:39:01.265Z,31
2023-05-09T02:41:00.874Z,31.3
2023-05-09T02:43:03.829Z,36.5
2023-05-09T02:51:02.148Z,30.4
2023-05-09T02:53:01.698Z,31.9
2023-05-09T02:55:01.275Z,31.4
2023-05-09T02:59:03.862Z,32.8
2023-05-09T03:03:03.072Z,33.7
2023-05-09T03:05:02.564Z,31.4
2023-05-09T03:07:02.155Z,33.7
2023-05-09T03:09:01.723Z,29.6
2023-05-09T03:11:04.717Z,34.1
2023-05-09T03:15:03.818Z,32
2023-05-09T03:17:03.429Z,30.9
2023-05-09T03:19:02.989Z,33.2
2023-05-09T03:21:02.579Z,31
2023-05-09T03:23:02.151Z,32.9
2023-05-09T03:25:05.113Z,32.2
2023-05-09T03:27:04.682Z,29.4
2023-05-09T03:30:05.817Z,33.2
2023-05-09T03:32:05.343Z,27.5
2023-05-09T03:44:07.572Z,30.9
2023-05-09T03:46:07.148Z,29
2023-05-09T03:48:06.838Z,30
2023-05-09T03:50:06.363Z,28.7
2023-05-09T03:52:09.277Z,31.6
2023-05-09T03:54:08.828Z,31.3
2023-05-09T03:58:07.994Z,30.7
2023-05-09T04:00:07.528Z,25.6
2023-05-09T04:02:07.229Z,25.9
2023-05-09T04:06:09.663Z,29.2
2023-05-09T04:08:09.256Z,29
2023-05-09T04:10:08.835Z,30.3
2023-05-09T04:12:08.370Z,24.5
2023-05-09T04:14:07.952Z,29.3
2023-05-09T04:16:07.542Z,25.8
2023-05-09T04:18:07.125Z,29.6
2023-05-09T04:20:10.085Z,26.3
2023-05-09T04:22:09.658Z,28.2
2023-05-09T04:24:09.221Z,23.9
2023-05-09T04:25:10.732Z,27.5
2023-05-09T04:29:09.872Z,26.3
2023-05-09T04:31:09.601Z,28.7
2023-05-09T04:35:12.381Z,28.2
2023-05-09T04:37:11.613Z,26.6
2023-05-09T04:39:11.209Z,25.9
2023-05-09T04:41:10.776Z,25.3
2023-05-09T04:45:09.959Z,27.3
2023-05-09T04:47:12.969Z,28.1
2023-05-09T04:55:11.243Z,26.6
2023-05-09T05:05:12.856Z,28.7
2023-05-09T05:07:12.182Z,26.8
2023-05-09T05:09:11.793Z,28.9
2023-05-09T05:11:11.355Z,26
2023-05-09T05:13:10.940Z,24.6
2023-05-09T05:15:14.181Z,26
2023-05-09T05:19:13.116Z,26.2
2023-05-09T05:20:14.576Z,28.7
2023-05-09T05:24:13.763Z,22.3
2023-05-09T05:32:15.583Z,24.7
2023-05-09T05:34:15.137Z,22.8
2023-05-09T05:36:14.669Z,23.7
2023-05-09T05:40:13.832Z,24.7
2023-05-09T05:42:16.823Z,25.6
2023-05-09T05:44:16.382Z,25.3
2023-05-09T05:46:16.023Z,24.4
2023-05-09T05:50:15.102Z,22.8
2023-05-09T05:52:14.689Z,22.9
2023-05-09T05:54:14.246Z,23.4
2023-05-09T05:58:16.805Z,22.5
2023-05-09T06:00:16.377Z,19.9
2023-05-09T06:02:15.987Z,19.2
2023-05-09T06:04:15.575Z,20.4
2023-05-09T06:06:15.097Z,20.9
2023-05-09T06:10:17.626Z,23.1
2023-05-09T06:12:17.194Z,20.7
2023-05-09T06:14:16.749Z,19.7
2023-05-09T06:16:31.954Z,20
2023-05-09T06:20:31.043Z,20.5
2023-05-09T06:22:34.010Z,21.7
2023-05-09T06:28:32.658Z,16.1
2023-05-09T06:30:32.201Z,17.6
2023-05-09T06:32:31.766Z,17.6
2023-05-09T06:34:31.274Z,20.1
2023-05-09T06:36:34.256Z,19.5
2023-05-09T06:42:32.921Z,19.6
2023-05-09T06:44:32.452Z,17.5
2023-05-09T06:46:32.024Z,15.6
2023-05-09T07:00:32.130Z,14.5
2023-05-09T07:02:31.759Z,14.8
2023-05-09T07:04:34.648Z,13.5
2023-05-09T07:06:34.145Z,13.6
2023-05-09T07:09:35.122Z,14.7
2023-05-09T07:11:34.643Z,14.6
2023-05-09T07:15:41.807Z,11.9
2023-05-09T07:17:36.616Z,14.1
2023-05-09T07:19:35.978Z,11.1
2023-05-09T07:25:34.470Z,11
2023-05-09T07:27:33.906Z,11.2
2023-05-09T07:29:33.389Z,12.2
2023-05-09T07:31:37.542Z,11.7
2023-05-09T07:37:34.847Z,10.6
2023-05-09T07:39:34.332Z,10.2
2023-05-09T07:41:33.832Z,9.5
2023-05-09T07:43:33.317Z,10.4
2023-05-09T07:45:36.321Z,9.9
2023-05-09T07:47:35.755Z,9.7
2023-05-09T07:49:35.113Z,9.2
2023-05-09T07:51:34.630Z,10.3
2023-05-09T07:55:33.607Z,9.4
2023-05-09T07:57:33.117Z,11.6
2023-05-09T07:59:36.043Z,9.7
2023-05-09T08:01:35.513Z,9
2023-05-09T08:03:35.140Z,10.1
2023-05-09T08:04:36.625Z,9.2
2023-05-09T08:08:37.093Z,8.5
2023-05-09T08:10:35.006Z,9.3
2023-05-09T08:12:37.860Z,10.2
2023-05-09T08:14:37.376Z,10.4
2023-05-09T08:16:37.015Z,8.1
2023-05-09T08:32:35.877Z,9
2023-05-09T08:36:34.666Z,8.1
2023-05-09T08:38:34.041Z,6.9
2023-05-09T08:40:36.965Z,8.2
2023-05-09T08:42:36.389Z,8.2
2023-05-09T08:44:35.827Z,9.8
2023-05-09T08:46:35.290Z,8.5
2023-05-09T08:48:36.046Z,7.7
2023-05-09T08:52:33.600Z,8.3
2023-05-09T08:54:36.367Z,8.7
2023-05-09T08:56:35.769Z,8
2023-05-09T09:09:36.286Z,7.2
2023-05-09T09:11:35.602Z,7.8
2023-05-09T09:15:34.316Z,7.6
2023-05-09T09:17:33.665Z,9.1
2023-05-09T09:19:32.944Z,7.7
2023-05-09T09:21:35.704Z,9.5
2023-05-09T09:27:35.372Z,7.5
2023-05-09T09:29:36.354Z,8.4
2023-05-09T09:31:35.724Z,7.2
2023-05-09T09:33:35.113Z,8.3
2023-05-09T09:35:37.950Z,8.3
2023-05-09T09:37:37.271Z,8.5
2023-05-09T09:47:34.444Z,8.5
2023-05-09T09:49:37.271Z,9.4
2023-05-09T09:55:57.574Z,8.9
2023-05-09T09:59:56.427Z,8.9
2023-05-09T10:01:59.307Z,9.7
2023-05-09T10:03:58.834Z,8.3
2023-05-09T10:05:58.195Z,9.6
2023-05-09T10:07:57.715Z,7.6
2023-05-09T10:09:57.159Z,9.2
2023-05-09T10:11:56.644Z,8.6
2023-05-09T10:17:58.429Z,7.9
2023-05-09T10:19:57.889Z,8.5
2023-05-09T10:21:57.331Z,7.5
2023-05-09T10:23:56.805Z,8
2023-05-09T10:27:55.766Z,6.8
2023-05-09T10:29:58.702Z,7.6
2023-05-09T10:31:58.164Z,6.8
2023-05-09T10:33:57.636Z,7
2023-05-09T10:35:57.195Z,5.9
2023-05-09T10:39:56.062Z,4.9
2023-05-09T10:43:58.308Z,5.5
2023-05-09T10:45:57.655Z,5.8
2023-05-09T10:48:58.584Z,4.5
2023-05-09T10:50:57.932Z,4.4
2023-05-09T10:52:57.398Z,4.2
2023-05-09T10:54:56.829Z,4.5
2023-05-09T10:56:59.536Z,4.2
2023-05-09T11:02:57.925Z,3.5
2023-05-09T11:04:57.331Z,4.1
2023-05-09T11:06:57.779Z,3.9
2023-05-09T11:08:56.258Z,4.7
2023-05-09T11:12:58.651Z,4.5
2023-05-09T11:14:57.812Z,4.5
2023-05-09T11:16:57.152Z,3.5
2023-05-09T11:24:58.079Z,4.2
2023-05-09T11:32:55.874Z,4.5
2023-05-09T11:34:55.165Z,4
2023-05-09T11:36:56.071Z,3.9
2023-05-09T11:38:57.507Z,4.2
2023-05-09T11:40:56.993Z,3.6
2023-05-09T11:42:58.295Z,3.7
2023-05-09T11:43:57.885Z,4
2023-05-09T11:45:57.349Z,4.5
2023-05-09T11:47:56.793Z,4.9
2023-05-09T11:51:59.128Z,4.8
2023-05-09T11:53:58.617Z,4.1
2023-05-09T11:55:58.081Z,5.2
2023-05-09T11:57:57.575Z,4.3
2023-05-09T11:59:57.052Z,3.9
2023-05-09T12:01:56.583Z,5
2023-05-09T12:07:58.479Z,4.6
2023-05-09T12:09:57.955Z,5
2023-05-09T12:11:57.465Z,5.4
2023-05-09T12:13:56.965Z,5.3
2023-05-09T12:15:56.529Z,4.1
2023-05-09T12:17:56.039Z,4.1
2023-05-09T12:19:58.950Z,4.1
2023-05-09T12:21:58.450Z,3.5
2023-05-09T12:23:57.991Z,2.9
2023-05-09T12:25:57.539Z,2.9
2023-05-09T12:27:57.029Z,3
2023-05-09T12:29:56.573Z,3.1
2023-05-09T12:31:56.071Z,2.7
2023-05-09T12:33:59.052Z,2.7
2023-05-09T12:35:58.571Z,2.6
2023-05-09T12:37:58.104Z,2.8
2023-05-09T12:38:59.588Z,2.9
2023-05-09T12:42:58.653Z,2.6
2023-05-09T12:44:58.207Z,1.9
2023-05-09T12:47:01.195Z,2.7
2023-05-09T12:49:00.709Z,2.9
2023-05-09T12:51:00.222Z,2.5
2023-05-09T12:53:03.644Z,1.8
2023-05-09T12:54:59.359Z,2.8
2023-05-09T12:56:58.890Z,2.8
2023-05-09T12:58:58.431Z,2.5
2023-05-09T13:01:01.470Z,2.7
2023-05-09T13:03:01.030Z,2.1
2023-05-09T13:05:00.476Z,2.8
2023-05-09T13:07:00.233Z,2.2
2023-05-09T13:08:59.582Z,3
2023-05-09T13:11:12.059Z,2.5
2023-05-09T13:12:58.767Z,2.2
2023-05-09T13:15:01.736Z,2.8
2023-05-09T13:17:01.283Z,3.1
2023-05-09T13:19:00.802Z,2.5
2023-05-09T13:33:09.544Z,2.5
2023-05-09T13:35:22.712Z,2.3
2023-05-09T13:39:21.835Z,2.6
2023-05-09T13:41:24.817Z,2
2023-05-09T13:45:23.906Z,2.2
2023-05-09T13:47:23.458Z,2.4
2023-05-09T13:49:23.008Z,3.4
2023-05-09T13:51:22.554Z,2.8
2023-05-09T13:55:25.056Z,2.8
2023-05-09T13:57:24.620Z,3.1
2023-05-09T14:05:22.799Z,2
2023-05-09T14:07:22.369Z,2
2023-05-09T14:09:25.333Z,2.2
2023-05-09T14:11:25.506Z,1.6
2023-05-09T14:17:23.532Z,1.6
2023-05-09T14:21:22.624Z,2
2023-05-09T14:25:25.127Z,2.2
2023-05-09T14:28:26.175Z,1.9
2023-05-09T14:30:25.736Z,1.8
2023-05-09T14:32:25.347Z,1.7
2023-05-09T14:34:24.829Z,1.7
2023-05-09T14:38:27.360Z,1.7
2023-05-09T14:40:26.910Z,1.8
2023-05-09T14:42:26.438Z,2
2023-05-09T14:44:26.009Z,1.8
2023-05-09T14:46:25.563Z,1.5
2023-05-09T14:48:25.112Z,1.7
2023-05-09T14:50:28.091Z,1.7
2023-05-09T14:52:27.675Z,1.7
2023-05-09T14:54:27.200Z,1.9
2023-05-09T14:56:26.740Z,1.9
2023-05-09T14:58:26.284Z,2
2023-05-09T15:00:26.156Z,2.2
2023-05-09T15:04:28.465Z,1.9
2023-05-09T15:06:27.958Z,1.9
2023-05-09T15:08:27.494Z,2.1
2023-05-09T15:10:27.061Z,1.7
2023-05-09T15:14:27.711Z,1.9
2023-05-09T15:16:27.272Z,1.9
2023-05-09T15:18:30.177Z,1.6
2023-05-09T15:23:30.842Z,2.2
2023-05-09T15:29:29.494Z,2.2
2023-05-09T15:31:32.563Z,1.6
2023-05-09T15:33:32.027Z,2.2
2023-05-09T15:35:31.584Z,2
2023-05-09T15:37:31.737Z,2.2
2023-05-09T15:45:32.814Z,2.7
2023-05-09T15:55:30.592Z,1.6
2023-05-09T15:57:30.193Z,1.8
2023-05-09T15:59:33.148Z,1.7
2023-05-09T16:01:35.116Z,2.1
2023-05-09T16:07:33.321Z,2.1
2023-05-09T16:09:30.938Z,2
2023-05-09T16:11:30.505Z,2.6
2023-05-09T16:13:35.725Z,2.5
2023-05-09T16:15:33.049Z,2.8
2023-05-09T16:17:32.586Z,3
2023-05-09T16:18:34.093Z,3.3
2023-05-09T16:20:33.650Z,2.3
2023-05-09T16:22:33.190Z,2.5
2023-05-09T16:24:32.792Z,2.6
2023-05-09T16:26:35.742Z,2.6
2023-05-09T16:30:34.885Z,3.1
2023-05-09T16:34:34.027Z,2.4
2023-05-09T16:36:33.618Z,2.9
2023-05-09T16:40:36.103Z,3.4
2023-05-09T16:44:35.238Z,3.1
2023-05-09T16:46:34.803Z,3.5
2023-05-09T17:00:35.221Z,3
2023-05-09T17:02:34.837Z,2.9
2023-05-09T17:04:36.737Z,3
2023-05-09T17:06:33.908Z,2.6
2023-05-09T17:10:37.810Z,3.5
2023-05-09T17:12:36.040Z,2.6
2023-05-09T17:18:56.807Z,2.6
2023-05-09T17:22:59.391Z,2.7
2023-05-09T17:24:58.963Z,2.8
2023-05-09T17:26:58.559Z,3
2023-05-09T17:28:58.105Z,2.2
2023-05-09T17:30:57.702Z,3.1
2023-05-09T17:32:57.262Z,2.8
2023-05-09T17:35:00.211Z,2.4
2023-05-09T17:36:59.761Z,2.8
2023-05-09T17:38:59.395Z,2.6
2023-05-09T17:42:58.534Z,2.5
2023-05-09T17:44:58.128Z,3
2023-05-09T17:46:57.691Z,2.9
2023-05-09T17:49:00.662Z,3
2023-05-09T17:51:00.260Z,2.8
2023-05-09T17:56:59.051Z,2.4
2023-05-09T18:03:01.186Z,3.3
2023-05-09T18:07:00.277Z,3.1
2023-05-09T18:08:01.785Z,2.8
2023-05-09T18:18:03.141Z,3.3
2023-05-09T18:22:02.258Z,3.5
2023-05-09T18:24:01.828Z,2.8
2023-05-09T18:28:01.005Z,2.9
2023-05-09T18:30:03.989Z,3.3
2023-05-09T18:32:03.555Z,2.9
2023-05-09T18:34:03.181Z,3.4
2023-05-09T18:38:02.315Z,2.8
2023-05-09T18:42:01.482Z,3.4
2023-05-09T18:44:04.505Z,4.2
2023-05-09T18:46:04.140Z,3.9
2023-05-09T18:48:03.733Z,4
2023-05-09T18:50:03.299Z,3.3
2023-05-09T18:52:02.876Z,4.1
2023-05-09T18:54:02.464Z,4
2023-05-09T19:00:04.612Z,4.4
2023-05-09T19:02:04.222Z,4.4
2023-05-09T19:03:05.776Z,4.3
2023-05-09T19:05:05.309Z,4.5
2023-05-09T19:07:04.891Z,4.4
2023-05-09T19:11:07.497Z,4
2023-05-09T19:33:06.419Z,4.8
2023-05-09T19:35:05.953Z,5.3
2023-05-09T19:39:08.551Z,5.1
2023-05-09T19:41:08.132Z,4.4
2023-05-09T19:43:07.721Z,5.5
2023-05-09T19:45:07.304Z,4.9
2023-05-09T19:47:06.868Z,5.4
2023-05-09T19:49:06.441Z,5.3
2023-05-09T19:51:05.951Z,4.2
2023-05-09T19:55:08.489Z,5.3
2023-05-09T19:57:08.071Z,4.9
2023-05-09T19:58:09.545Z,4.9
2023-05-09T20:00:09.098Z,5.1
2023-05-09T20:02:08.644Z,4.9
2023-05-09T20:04:08.224Z,5.6
2023-05-09T20:08:10.700Z,5.3
2023-05-09T20:16:08.964Z,4.8
2023-05-09T20:18:08.481Z,5.7
2023-05-09T20:20:11.388Z,5.6
2023-05-09T20:22:10.923Z,5.7
2023-05-09T20:28:09.581Z,4.9
2023-05-09T20:30:09.144Z,6.8
2023-05-09T20:32:08.716Z,6.6
2023-05-09T20:38:10.778Z,5.8
2023-05-09T20:40:10.315Z,6.5
2023-05-09T20:42:09.856Z,6.3
2023-05-09T20:44:09.416Z,5.4
2023-05-09T20:46:09.049Z,6.7
2023-05-09T20:54:30.153Z,8.6
2023-05-09T21:02:33.399Z,6.6
2023-05-09T21:04:32.888Z,6.8
2023-05-09T21:16:33.783Z,7.5
2023-05-09T21:18:33.336Z,8
2023-05-09T21:20:32.908Z,7.8
2023-05-09T21:22:32.440Z,8
2023-05-09T21:24:32.047Z,9.4
2023-05-09T21:26:31.615Z,6.9
2023-05-09T21:28:34.626Z,7.9
2023-05-09T21:30:34.172Z,7.2
2023-05-09T21:32:33.786Z,7.9
2023-05-09T21:34:33.323Z,8
2023-05-09T21:36:32.909Z,8.2
2023-05-09T21:38:33.267Z,7
2023-05-09T21:40:32.846Z,7.3
2023-05-09T21:44:35.420Z,7.1
2023-05-09T21:46:35.194Z,6.6
2023-05-09T21:47:36.644Z,7.3
2023-05-09T21:51:35.698Z,4.8
2023-05-09T21:53:35.291Z,2.8
2023-05-09T21:59:37.457Z,2.4
2023-05-09T22:01:37.111Z,2.5
2023-05-09T22:03:36.740Z,2
2023-05-09T22:05:36.246Z,3.1
2023-05-09T22:07:35.849Z,2.2
2023-05-09T22:09:38.831Z,2.6
2023-05-09T22:11:38.433Z,2.3
2023-05-09T22:17:37.316Z,1.9
2023-05-09T22:25:39.034Z,2
2023-05-09T22:27:38.644Z,2.1
2023-05-09T22:29:38.211Z,1.9
2023-05-09T22:37:40.047Z,2.6
2023-05-09T22:39:39.669Z,2.2
2023-05-09T22:42:40.789Z,2
2023-05-09T22:44:40.414Z,2.5
2023-05-09T22:48:39.583Z,2.1
2023-05-09T22:50:42.633Z,2.8
2023-05-09T22:52:42.254Z,3
2023-05-09T22:54:41.877Z,2.9
2023-05-09T22:56:41.490Z,2.5
2023-05-09T22:58:41.101Z,3
2023-05-09T23:08:42.632Z,3.1
2023-05-09T23:10:42.244Z,3.6
2023-05-09T23:14:41.502Z,3.6
2023-05-09T23:18:44.151Z,4.1
2023-05-09T23:20:43.764Z,4.6
2023-05-09T23:24:42.994Z,4.5
2023-05-09T23:30:41.859Z,4.6
2023-05-09T23:32:44.870Z,4.8
2023-05-09T23:34:44.503Z,4.8
2023-05-09T23:41:44.874Z,4.7
2023-05-09T23:45:47.505Z,6.4
2023-05-09T23:47:47.149Z,5.1
2023-05-09T23:51:46.350Z,5
2023-05-09T23:55:45.630Z,5.9
2023-05-09T23:57:45.237Z,5.4
2023-05-09T23:59:48.227Z,5.9
